sensor_id;sensor_type;location;lat;lon;timestamp;pressure;altitude;pressure_sealevel;temperature;humidity
50282;BME280;36176;51.506;10.272;2024-02-28T00:02:44;99663.88;;;2.72;96.01
50282;BME280;36176;51.506;10.272;2024-02-28T00:05:35;99667.34;;;2.75;96.16
50282;BME280;36176;51.506;10.272;2024-02-28T00:08:17;99672.53;;;2.77;95.74
50282;BME280;36176;51.506;10.272;2024-02-28T00:10:50;99672.53;;;2.77;96.10
50282;BME280;36176;51.506;10.272;2024-02-28T00:13:23;99672.53;;;2.79;96.04
50282;BME280;36176;51.506;10.272;2024-02-28T00:16:03;99685.63;;;2.77;96.27
50282;BME280;36176;51.506;10.272;2024-02-28T00:18:46;99683.06;;;2.72;96.51
50282;BME280;36176;51.506;10.272;2024-02-28T00:21:33;99680.47;;;2.71;96.54
50282;BME280;36176;51.506;10.272;2024-02-28T00:27:14;99687.53;;;2.63;96.76
50282;BME280;36176;51.506;10.272;2024-02-28T00:29:44;99691.97;;;2.56;97.32
50282;BME280;36176;51.506;10.272;2024-02-28T00:32:30;99686.75;;;2.54;97.45
50282;BME280;36176;51.506;10.272;2024-02-28T00:35:16;99691.94;;;2.58;97.41
50282;BME280;36176;51.506;10.272;2024-02-28T00:38:02;99692.81;;;2.58;97.93
50282;BME280;36176;51.506;10.272;2024-02-28T00:40:37;99692.84;;;2.57;97.30
50282;BME280;36176;51.506;10.272;2024-02-28T00:43:07;99685.84;;;2.57;97.42
50282;BME280;36176;51.506;10.272;2024-02-28T00:45:42;99683.25;;;2.59;97.36
50282;BME280;36176;51.506;10.272;2024-02-28T00:48:17;99684.09;;;2.59;97.09
50282;BME280;36176;51.506;10.272;2024-02-28T00:50:58;99690.19;;;2.60;96.82
50282;BME280;36176;51.506;10.272;2024-02-28T00:53:38;99687.53;;;2.64;97.01
50282;BME280;36176;51.506;10.272;2024-02-28T00:56:05;99689.19;;;2.71;96.77
50282;BME280;36176;51.506;10.272;2024-02-28T00:58:34;99687.47;;;2.67;96.80
50282;BME280;36176;51.506;10.272;2024-02-28T01:01:02;99701.41;;;2.69;96.85
50282;BME280;36176;51.506;10.272;2024-02-28T01:03:30;99701.41;;;2.68;96.64
50282;BME280;36176;51.506;10.272;2024-02-28T01:06:31;99705.84;;;2.63;97.03
50282;BME280;36176;51.506;10.272;2024-02-28T01:12:07;99717.25;;;2.57;97.21
50282;BME280;36176;51.506;10.272;2024-02-28T01:14:44;99721.53;;;2.63;97.08
50282;BME280;36176;51.506;10.272;2024-02-28T01:17:16;99721.59;;;2.60;97.07
50282;BME280;36176;51.506;10.272;2024-02-28T01:22:36;99728.63;;;2.54;97.16
50282;BME280;36176;51.506;10.272;2024-02-28T01:25:10;99730.31;;;2.59;96.63
50282;BME280;36176;51.506;10.272;2024-02-28T01:27:43;99722.47;;;2.57;97.03
50282;BME280;36176;51.506;10.272;2024-02-28T01:30:37;99729.44;;;2.58;97.06
50282;BME280;36176;51.506;10.272;2024-02-28T01:33:06;99727.72;;;2.59;96.79
50282;BME280;36176;51.506;10.272;2024-02-28T01:35:35;99732.03;;;2.58;97.04
50282;BME280;36176;51.506;10.272;2024-02-28T01:38:06;99727.72;;;2.59;96.89
50282;BME280;36176;51.506;10.272;2024-02-28T01:40:33;99730.22;;;2.66;97.54
50282;BME280;36176;51.506;10.272;2024-02-28T01:43:07;99727.53;;;2.72;96.76
50282;BME280;36176;51.506;10.272;2024-02-28T01:45:40;99731.00;;;2.73;96.69
50282;BME280;36176;51.506;10.272;2024-02-28T01:48:11;99729.28;;;2.73;96.37
50282;BME280;36176;51.506;10.272;2024-02-28T01:50:41;99720.53;;;2.74;96.31
50282;BME280;36176;51.506;10.272;2024-02-28T01:53:10;99725.78;;;2.73;96.11
50282;BME280;36176;51.506;10.272;2024-02-28T01:55:42;99721.53;;;2.64;95.88
50282;BME280;36176;51.506;10.272;2024-02-28T01:58:16;99718.06;;;2.62;95.43
50282;BME280;36176;51.506;10.272;2024-02-28T02:00:50;99725.09;;;2.55;95.62
50282;BME280;36176;51.506;10.272;2024-02-28T02:03:21;99718.19;;;2.50;95.67
50282;BME280;36176;51.506;10.272;2024-02-28T02:05:51;99729.56;;;2.47;95.33
50282;BME280;36176;51.506;10.272;2024-02-28T02:08:23;99721.81;;;2.37;96.04
50282;BME280;36176;51.506;10.272;2024-02-28T02:11:01;99724.47;;;2.32;95.64
50282;BME280;36176;51.506;10.272;2024-02-28T02:13:29;99724.47;;;2.32;96.39
50282;BME280;36176;51.506;10.272;2024-02-28T02:15:56;99713.19;;;2.30;96.25
50282;BME280;36176;51.506;10.272;2024-02-28T02:18:40;99720.22;;;2.22;96.25
50282;BME280;36176;51.506;10.272;2024-02-28T02:21:14;99718.44;;;2.24;96.32
50282;BME280;36176;51.506;10.272;2024-02-28T02:23:51;99716.69;;;2.26;96.78
50282;BME280;36176;51.506;10.272;2024-02-28T02:26:25;99723.63;;;2.30;96.73
50282;BME280;36176;51.506;10.272;2024-02-28T02:28:57;99723.59;;;2.33;96.70
50282;BME280;36176;51.506;10.272;2024-02-28T02:31:37;99722.75;;;2.32;95.92
50282;BME280;36176;51.506;10.272;2024-02-28T02:34:06;99721.88;;;2.29;96.77
50282;BME280;36176;51.506;10.272;2024-02-28T02:36:35;99714.09;;;2.24;96.42
50282;BME280;36176;51.506;10.272;2024-02-28T02:39:02;99710.59;;;2.22;96.13
50282;BME280;36176;51.506;10.272;2024-02-28T02:41:30;99711.50;;;2.23;96.86
50282;BME280;36176;51.506;10.272;2024-02-28T02:43:57;99715.88;;;2.18;96.52
50282;BME280;36176;51.506;10.272;2024-02-28T02:46:24;99713.31;;;2.15;96.83
50282;BME280;36176;51.506;10.272;2024-02-28T02:48:55;99714.19;;;2.13;96.67
50282;BME280;36176;51.506;10.272;2024-02-28T02:51:23;99713.31;;;2.13;96.31
50282;BME280;36176;51.506;10.272;2024-02-28T02:53:50;99716.78;;;2.17;95.75
50282;BME280;36176;51.506;10.272;2024-02-28T02:56:20;99715.91;;;2.15;95.86
50282;BME280;36176;51.506;10.272;2024-02-28T02:58:47;99714.25;;;2.06;96.13
50282;BME280;36176;51.506;10.272;2024-02-28T03:01:19;99717.75;;;2.06;96.06
50282;BME280;36176;51.506;10.272;2024-02-28T03:03:47;99719.47;;;2.09;95.75
50282;BME280;36176;51.506;10.272;2024-02-28T03:06:21;99725.59;;;2.06;95.96
50282;BME280;36176;51.506;10.272;2024-02-28T03:08:59;99712.53;;;2.05;95.85
50282;BME280;36176;51.506;10.272;2024-02-28T03:11:28;99720.38;;;2.06;95.81
50282;BME280;36176;51.506;10.272;2024-02-28T03:13:58;99709.00;;;2.07;96.13
50282;BME280;36176;51.506;10.272;2024-02-28T03:16:27;99720.31;;;2.08;95.91
50282;BME280;36176;51.506;10.272;2024-02-28T03:18:55;99716.03;;;2.04;95.73
50282;BME280;36176;51.506;10.272;2024-02-28T03:21:22;99718.66;;;2.02;95.71
50282;BME280;36176;51.506;10.272;2024-02-28T03:23:52;99720.38;;;2.05;96.14
50282;BME280;36176;51.506;10.272;2024-02-28T03:26:22;99715.06;;;2.14;96.17
50282;BME280;36176;51.506;10.272;2024-02-28T03:28:52;99725.44;;;2.22;95.34
50282;BME280;36176;51.506;10.272;2024-02-28T03:31:22;99715.91;;;2.16;94.61
50282;BME280;36176;51.506;10.272;2024-02-28T03:34:06;99713.34;;;2.11;94.89
50282;BME280;36176;51.506;10.272;2024-02-28T03:36:35;99713.31;;;2.15;95.00
50282;BME280;36176;51.506;10.272;2024-02-28T03:39:11;99709.78;;;2.17;94.28
50282;BME280;36176;51.506;10.272;2024-02-28T03:41:57;99716.72;;;2.21;95.17
50282;BME280;36176;51.506;10.272;2024-02-28T03:44:32;99714.13;;;2.23;94.60
50282;BME280;36176;51.506;10.272;2024-02-28T03:47:20;99714.13;;;2.21;94.83
50282;BME280;36176;51.506;10.272;2024-02-28T03:49:59;99716.78;;;2.17;94.95
50282;BME280;36176;51.506;10.272;2024-02-28T03:52:40;99723.72;;;2.18;94.97
50282;BME280;36176;51.506;10.272;2024-02-28T03:55:34;99733.31;;;2.17;95.14
50282;BME280;36176;51.506;10.272;2024-02-28T03:58:32;99724.63;;;2.18;95.21
50282;BME280;36176;51.506;10.272;2024-02-28T04:01:02;99726.34;;;2.21;95.58
50282;BME280;36176;51.506;10.272;2024-02-28T04:03:40;99727.19;;;2.20;94.97
50282;BME280;36176;51.506;10.272;2024-02-28T04:09:39;99745.53;;;2.15;95.44
50282;BME280;36176;51.506;10.272;2024-02-28T04:15:32;99756.94;;;2.06;95.54
50282;BME280;36176;51.506;10.272;2024-02-28T04:21:10;99763.13;;;1.91;94.96
50282;BME280;36176;51.506;10.272;2024-02-28T04:23:51;99764.94;;;1.89;95.52
50282;BME280;36176;51.506;10.272;2024-02-28T04:30:13;99784.94;;;1.90;95.48
50282;BME280;36176;51.506;10.272;2024-02-28T04:32:43;99784.97;;;1.84;94.57
50282;BME280;36176;51.506;10.272;2024-02-28T04:35:24;99791.13;;;1.80;94.80
50282;BME280;36176;51.506;10.272;2024-02-28T04:37:51;99786.72;;;1.87;94.83
50282;BME280;36176;51.506;10.272;2024-02-28T04:40:19;99786.72;;;1.85;94.40
50282;BME280;36176;51.506;10.272;2024-02-28T04:42:46;99793.72;;;1.79;94.34
50282;BME280;36176;51.506;10.272;2024-02-28T04:45:14;99798.13;;;1.75;94.86
50282;BME280;36176;51.506;10.272;2024-02-28T04:47:41;99794.66;;;1.70;94.70
50282;BME280;36176;51.506;10.272;2024-02-28T04:50:14;99799.03;;;1.66;94.57
50282;BME280;36176;51.506;10.272;2024-02-28T04:52:41;99792.06;;;1.62;94.74
50282;BME280;36176;51.506;10.272;2024-02-28T04:55:08;99801.72;;;1.56;94.44
50282;BME280;36176;51.506;10.272;2024-02-28T04:57:35;99819.16;;;1.49;94.80
50282;BME280;36176;51.506;10.272;2024-02-28T05:00:03;99818.28;;;1.45;94.93
50282;BME280;36176;51.506;10.272;2024-02-28T05:02:30;99823.50;;;1.48;94.52
50282;BME280;36176;51.506;10.272;2024-02-28T05:04:58;99827.88;;;1.42;94.44
50282;BME280;36176;51.506;10.272;2024-02-28T05:07:25;99831.34;;;1.45;94.98
50282;BME280;36176;51.506;10.272;2024-02-28T05:09:52;99844.34;;;1.53;94.38
50282;BME280;36176;51.506;10.272;2024-02-28T05:12:19;99844.38;;;1.56;94.44
50282;BME280;36176;51.506;10.272;2024-02-28T05:14:46;99842.63;;;1.58;94.37
50282;BME280;36176;51.506;10.272;2024-02-28T05:17:15;99837.41;;;1.52;94.43
50282;BME280;36176;51.506;10.272;2024-02-28T05:19:42;99834.78;;;1.52;94.86
50282;BME280;36176;51.506;10.272;2024-02-28T05:22:10;99836.53;;;1.50;94.80
50282;BME280;36176;51.506;10.272;2024-02-28T05:24:38;99839.13;;;1.53;95.18
50282;BME280;36176;51.506;10.272;2024-02-28T05:27:06;99833.91;;;1.55;95.39
50282;BME280;36176;51.506;10.272;2024-02-28T05:29:33;99839.97;;;1.61;94.99
50282;BME280;36176;51.506;10.272;2024-02-28T05:32:00;99849.53;;;1.70;95.21
50282;BME280;36176;51.506;10.272;2024-02-28T05:34:27;99849.47;;;1.75;95.12
50282;BME280;36176;51.506;10.272;2024-02-28T05:37:00;99851.19;;;1.77;95.42
50282;BME280;36176;51.506;10.272;2024-02-28T05:39:27;99847.75;;;1.74;94.54
50282;BME280;36176;51.506;10.272;2024-02-28T05:41:55;99851.22;;;1.74;94.97
50282;BME280;36176;51.506;10.272;2024-02-28T05:44:22;99854.69;;;1.75;94.29
50282;BME280;36176;51.506;10.272;2024-02-28T05:46:49;99865.16;;;1.78;94.70
50282;BME280;36176;51.506;10.272;2024-02-28T05:49:16;99856.44;;;1.76;94.92
50282;BME280;36176;51.506;10.272;2024-02-28T05:51:44;99853.88;;;1.71;94.11
50282;BME280;36176;51.506;10.272;2024-02-28T05:54:11;99852.13;;;1.68;94.54
50282;BME280;36176;51.506;10.272;2024-02-28T05:56:38;99859.09;;;1.73;94.22
50282;BME280;36176;51.506;10.272;2024-02-28T05:59:05;99858.19;;;1.74;94.09
50282;BME280;36176;51.506;10.272;2024-02-28T06:01:33;99853.88;;;1.71;94.05
50282;BME280;36176;51.506;10.272;2024-02-28T06:04:00;99870.44;;;1.70;94.12
50282;BME280;36176;51.506;10.272;2024-02-28T06:06:27;99869.56;;;1.65;94.11
50282;BME280;36176;51.506;10.272;2024-02-28T06:08:54;99862.59;;;1.70;94.46
50282;BME280;36176;51.506;10.272;2024-02-28T06:11:21;99870.41;;;1.68;93.74
50282;BME280;36176;51.506;10.272;2024-02-28T06:13:51;99861.69;;;1.71;94.48
50282;BME280;36176;51.506;10.272;2024-02-28T06:16:18;99870.38;;;1.78;93.99
50282;BME280;36176;51.506;10.272;2024-02-28T06:18:45;99858.16;;;1.83;93.90
50282;BME280;36176;51.506;10.272;2024-02-28T06:21:15;99873.81;;;1.86;94.22
50282;BME280;36176;51.506;10.272;2024-02-28T06:23:42;99874.69;;;1.85;94.07
50282;BME280;36176;51.506;10.272;2024-02-28T06:26:10;99870.34;;;1.79;94.04
50282;BME280;36176;51.506;10.272;2024-02-28T06:28:37;99872.13;;;1.76;94.21
50282;BME280;36176;51.506;10.272;2024-02-28T06:31:04;99874.69;;;1.82;94.43
50282;BME280;36176;51.506;10.272;2024-02-28T06:33:33;99873.78;;;1.89;94.53
50282;BME280;36176;51.506;10.272;2024-02-28T06:36:00;99890.34;;;1.94;94.33
50282;BME280;36176;51.506;10.272;2024-02-28T06:38:27;99893.81;;;1.90;94.48
50282;BME280;36176;51.506;10.272;2024-02-28T06:40:54;99906.91;;;1.90;94.93
50282;BME280;36176;51.506;10.272;2024-02-28T06:43:21;99898.16;;;1.94;94.72
50282;BME280;36176;51.506;10.272;2024-02-28T06:45:50;99905.06;;;2.03;94.77
50282;BME280;36176;51.506;10.272;2024-02-28T06:48:19;99896.34;;;2.05;94.93
50282;BME280;36176;51.506;10.272;2024-02-28T06:50:46;99908.53;;;2.09;94.79
50282;BME280;36176;51.506;10.272;2024-02-28T06:53:13;99912.00;;;2.11;94.83
50282;BME280;36176;51.506;10.272;2024-02-28T06:55:40;99914.59;;;2.15;94.17
50282;BME280;36176;51.506;10.272;2024-02-28T06:58:07;99917.19;;;2.18;94.79
50282;BME280;36176;51.506;10.272;2024-02-28T07:00:35;99918.06;;;2.18;94.64
50282;BME280;36176;51.506;10.272;2024-02-28T07:03:03;99923.28;;;2.21;94.58
50282;BME280;36176;51.506;10.272;2024-02-28T07:05:30;99916.28;;;2.23;94.80
50282;BME280;36176;51.506;10.272;2024-02-28T07:07:57;99919.78;;;2.24;94.54
50282;BME280;36176;51.506;10.272;2024-02-28T07:10:24;99919.78;;;2.22;94.06
50282;BME280;36176;51.506;10.272;2024-02-28T07:12:52;99920.63;;;2.26;94.21
50282;BME280;36176;51.506;10.272;2024-02-28T07:15:19;99928.44;;;2.29;94.00
50282;BME280;36176;51.506;10.272;2024-02-28T07:17:47;99937.19;;;2.26;94.54
50282;BME280;36176;51.506;10.272;2024-02-28T07:20:15;99937.22;;;2.20;94.19
50282;BME280;36176;51.506;10.272;2024-02-28T07:22:43;99937.25;;;2.14;94.17
50282;BME280;36176;51.506;10.272;2024-02-28T07:25:10;99953.81;;;2.15;94.96
50282;BME280;36176;51.506;10.272;2024-02-28T07:27:37;99946.84;;;2.13;94.93
50282;BME280;36176;51.506;10.272;2024-02-28T07:30:05;99947.72;;;2.14;94.77
50282;BME280;36176;51.506;10.272;2024-02-28T07:32:32;99946.81;;;2.15;95.14
50282;BME280;36176;51.506;10.272;2024-02-28T07:34:59;99944.22;;;2.18;94.92
50282;BME280;36176;51.506;10.272;2024-02-28T07:37:26;99950.28;;;2.20;94.92
50282;BME280;36176;51.506;10.272;2024-02-28T07:39:53;99953.75;;;2.25;94.92
50282;BME280;36176;51.506;10.272;2024-02-28T07:42:20;99960.72;;;2.25;95.60
50282;BME280;36176;51.506;10.272;2024-02-28T07:44:48;99958.09;;;2.26;95.27
50282;BME280;36176;51.506;10.272;2024-02-28T07:47:15;99951.97;;;2.32;95.79
50282;BME280;36176;51.506;10.272;2024-02-28T07:49:43;99952.78;;;2.40;95.65
50282;BME280;36176;51.506;10.272;2024-02-28T07:52:12;99956.28;;;2.41;95.48
50282;BME280;36176;51.506;10.272;2024-02-28T07:54:42;99957.19;;;2.32;95.90
50282;BME280;36176;51.506;10.272;2024-02-28T07:57:10;99957.22;;;2.29;95.58
50282;BME280;36176;51.506;10.272;2024-02-28T07:59:41;99965.94;;;2.28;96.16
50282;BME280;36176;51.506;10.272;2024-02-28T08:02:11;99967.66;;;2.35;96.64
50282;BME280;36176;51.506;10.272;2024-02-28T08:04:38;99961.44;;;2.51;95.87
50282;BME280;36176;51.506;10.272;2024-02-28T08:07:06;99962.25;;;2.58;95.88
50282;BME280;36176;51.506;10.272;2024-02-28T08:09:33;99957.91;;;2.59;95.03
50282;BME280;36176;51.506;10.272;2024-02-28T08:12:00;99956.16;;;2.59;94.90
50282;BME280;36176;51.506;10.272;2024-02-28T08:14:27;99957.84;;;2.65;94.65
50282;BME280;36176;51.506;10.272;2024-02-28T08:16:54;99962.22;;;2.63;93.89
50282;BME280;36176;51.506;10.272;2024-02-28T08:19:22;99964.88;;;2.61;94.14
50282;BME280;36176;51.506;10.272;2024-02-28T08:21:48;99965.75;;;2.55;94.03
50282;BME280;36176;51.506;10.272;2024-02-28T08:24:16;99967.50;;;2.53;93.91
50282;BME280;36176;51.506;10.272;2024-02-28T08:26:43;99961.44;;;2.54;93.76
50282;BME280;36176;51.506;10.272;2024-02-28T08:29:10;99966.56;;;2.67;94.54
50282;BME280;36176;51.506;10.272;2024-02-28T08:31:43;99975.97;;;2.91;94.28
50282;BME280;36176;51.506;10.272;2024-02-28T08:34:11;99967.16;;;3.03;92.92
50282;BME280;36176;51.506;10.272;2024-02-28T08:36:39;99971.63;;;2.90;92.19
50282;BME280;36176;51.506;10.272;2024-02-28T08:39:06;99975.09;;;2.92;92.21
50282;BME280;36176;51.506;10.272;2024-02-28T08:41:35;99975.06;;;2.96;92.25
50282;BME280;36176;51.506;10.272;2024-02-28T08:44:02;99968.91;;;3.01;92.19
50282;BME280;36176;51.506;10.272;2024-02-28T08:46:29;99973.19;;;3.12;92.07
50282;BME280;36176;51.506;10.272;2024-02-28T08:48:56;99975.66;;;3.28;92.01
50282;BME280;36176;51.506;10.272;2024-02-28T08:51:23;99971.25;;;3.30;90.96
50282;BME280;36176;51.506;10.272;2024-02-28T08:53:50;99982.66;;;3.27;90.46
50282;BME280;36176;51.506;10.272;2024-02-28T08:56:17;99983.53;;;3.25;90.74
50282;BME280;36176;51.506;10.272;2024-02-28T08:58:45;99983.63;;;3.17;90.42
50282;BME280;36176;51.506;10.272;2024-02-28T09:01:15;99997.59;;;3.13;90.36
50282;BME280;36176;51.506;10.272;2024-02-28T09:03:43;99990.56;;;3.19;90.81
50282;BME280;36176;51.506;10.272;2024-02-28T09:06:11;99990.53;;;3.26;90.54
50282;BME280;36176;51.506;10.272;2024-02-28T09:08:41;99994.84;;;3.33;90.97
50282;BME280;36176;51.506;10.272;2024-02-28T09:11:08;99995.69;;;3.32;89.96
50282;BME280;36176;51.506;10.272;2024-02-28T09:13:36;99995.69;;;3.33;90.32
50282;BME280;36176;51.506;10.272;2024-02-28T09:16:03;99999.09;;;3.41;90.39
50282;BME280;36176;51.506;10.272;2024-02-28T09:18:31;100005.13;;;3.51;89.28
50282;BME280;36176;51.506;10.272;2024-02-28T09:20:59;100005.88;;;3.61;89.46
50282;BME280;36176;51.506;10.272;2024-02-28T09:23:26;100009.31;;;3.69;88.10
50282;BME280;36176;51.506;10.272;2024-02-28T09:25:53;99999.66;;;3.73;88.06
50282;BME280;36176;51.506;10.272;2024-02-28T09:28:22;100003.06;;;3.81;88.02
50282;BME280;36176;51.506;10.272;2024-02-28T09:30:49;100002.94;;;3.90;88.89
50282;BME280;36176;51.506;10.272;2024-02-28T09:33:19;100008.28;;;3.86;86.80
50282;BME280;36176;51.506;10.272;2024-02-28T09:35:47;100003.91;;;3.83;86.60
50282;BME280;36176;51.506;10.272;2024-02-28T09:38:16;100002.16;;;3.82;86.36
50282;BME280;36176;51.506;10.272;2024-02-28T09:40:46;100009.22;;;3.77;86.66
50282;BME280;36176;51.506;10.272;2024-02-28T09:43:37;100014.47;;;3.78;87.21
50282;BME280;36176;51.506;10.272;2024-02-28T09:46:07;100015.28;;;3.80;88.13
50282;BME280;36176;51.506;10.272;2024-02-28T09:48:38;100009.94;;;3.90;86.74
50282;BME280;36176;51.506;10.272;2024-02-28T09:51:08;100001.16;;;3.94;85.95
50282;BME280;36176;51.506;10.272;2024-02-28T09:53:36;100007.31;;;3.93;86.17
50282;BME280;36176;51.506;10.272;2024-02-28T09:56:03;100009.78;;;4.02;86.36
50282;BME280;36176;51.506;10.272;2024-02-28T09:58:30;100008.03;;;4.07;85.48
50282;BME280;36176;51.506;10.272;2024-02-28T10:00:59;100002.84;;;4.01;85.37
50282;BME280;36176;51.506;10.272;2024-02-28T10:03:31;100007.91;;;4.13;85.81
50282;BME280;36176;51.506;10.272;2024-02-28T10:06:01;100004.16;;;4.33;85.63
50282;BME280;36176;51.506;10.272;2024-02-28T10:08:32;100002.16;;;4.53;83.76
50282;BME280;36176;51.506;10.272;2024-02-28T10:10:59;100020.38;;;4.64;84.06
50282;BME280;36176;51.506;10.272;2024-02-28T10:13:26;100013.06;;;4.84;84.38
50282;BME280;36176;51.506;10.272;2024-02-28T10:15:53;100025.31;;;4.85;82.93
50282;BME280;36176;51.506;10.272;2024-02-28T10:18:21;100025.28;;;4.87;83.51
50282;BME280;36176;51.506;10.272;2024-02-28T10:20:49;100031.47;;;4.83;82.39
50282;BME280;36176;51.506;10.272;2024-02-28T10:23:16;100021.88;;;4.82;82.81
50282;BME280;36176;51.506;10.272;2024-02-28T10:25:45;100026.13;;;4.89;82.70
50282;BME280;36176;51.506;10.272;2024-02-28T10:28:23;100031.41;;;4.86;82.32
50282;BME280;36176;51.506;10.272;2024-02-28T10:30:51;100036.63;;;4.89;82.19
50282;BME280;36176;51.506;10.272;2024-02-28T10:33:18;100025.94;;;5.03;82.36
50282;BME280;36176;51.506;10.272;2024-02-28T10:35:52;100033.56;;;5.17;82.16
50282;BME280;36176;51.506;10.272;2024-02-28T10:38:20;100033.47;;;5.24;79.68
50282;BME280;36176;51.506;10.272;2024-02-28T10:40:48;100039.72;;;5.16;80.62
50282;BME280;36176;51.506;10.272;2024-02-28T10:43:16;100041.56;;;5.10;80.65
50282;BME280;36176;51.506;10.272;2024-02-28T10:45:43;100044.22;;;5.09;80.86
50282;BME280;36176;51.506;10.272;2024-02-28T10:48:30;100044.72;;;5.31;81.68
50282;BME280;36176;51.506;10.272;2024-02-28T10:50:58;100048.66;;;5.58;80.07
50282;BME280;36176;51.506;10.272;2024-02-28T10:53:36;100050.09;;;5.74;77.35
50282;BME280;36176;51.506;10.272;2024-02-28T10:56:04;100047.03;;;5.51;76.77
50282;BME280;36176;51.506;10.272;2024-02-28T10:58:35;100052.56;;;5.34;77.94
50282;BME280;36176;51.506;10.272;2024-02-28T11:01:03;100055.22;;;5.32;77.87
50282;BME280;36176;51.506;10.272;2024-02-28T11:03:30;100053.31;;;5.42;78.99
50282;BME280;36176;51.506;10.272;2024-02-28T11:05:58;100063.66;;;5.51;77.52
50282;BME280;36176;51.506;10.272;2024-02-28T11:08:27;100064.47;;;5.55;78.31
50282;BME280;36176;51.506;10.272;2024-02-28T11:11:02;100056.34;;;5.67;78.24
50282;BME280;36176;51.506;10.272;2024-02-28T11:13:30;100060.56;;;5.78;77.64
50282;BME280;36176;51.506;10.272;2024-02-28T11:16:07;100060.38;;;5.88;76.59
50282;BME280;36176;51.506;10.272;2024-02-28T11:18:35;100055.16;;;5.87;76.38
50282;BME280;36176;51.506;10.272;2024-02-28T11:21:17;100054.66;;;5.65;75.83
50282;BME280;36176;51.506;10.272;2024-02-28T11:23:51;100053.09;;;5.53;76.24
50282;BME280;36176;51.506;10.272;2024-02-28T11:26:18;100051.25;;;5.60;78.04
50282;BME280;36176;51.506;10.272;2024-02-28T11:28:45;100043.09;;;5.75;77.17
50282;BME280;36176;51.506;10.272;2024-02-28T11:31:12;100040.09;;;5.96;77.48
50282;BME280;36176;51.506;10.272;2024-02-28T11:33:40;100043.59;;;5.97;75.86
50282;BME280;36176;51.506;10.272;2024-02-28T11:36:07;100034.69;;;6.03;77.52
50282;BME280;36176;51.506;10.272;2024-02-28T11:38:35;100031.88;;;6.13;75.24
50282;BME280;36176;51.506;10.272;2024-02-28T11:41:05;100036.03;;;6.24;76.19
50282;BME280;36176;51.506;10.272;2024-02-28T11:43:34;100035.00;;;6.31;74.40
50282;BME280;36176;51.506;10.272;2024-02-28T11:46:17;100024.06;;;6.51;75.27
50282;BME280;36176;51.506;10.272;2024-02-28T11:48:46;100027.44;;;6.57;74.95
50282;BME280;36176;51.506;10.272;2024-02-28T11:51:13;100018.25;;;6.75;74.03
50282;BME280;36176;51.506;10.272;2024-02-28T11:53:40;100019.28;;;7.06;75.01
50282;BME280;36176;51.506;10.272;2024-02-28T11:56:07;100008.56;;;7.13;73.34
50282;BME280;36176;51.506;10.272;2024-02-28T11:58:34;100014.06;;;7.74;74.43
50282;BME280;36176;51.506;10.272;2024-02-28T12:01:03;100008.91;;;8.32;72.06
50282;BME280;36176;51.506;10.272;2024-02-28T12:03:30;100007.34;;;8.25;67.12
50282;BME280;36176;51.506;10.272;2024-02-28T12:05:58;100006.97;;;8.07;69.62
50282;BME280;36176;51.506;10.272;2024-02-28T12:08:25;100003.53;;;8.35;70.09
50282;BME280;36176;51.506;10.272;2024-02-28T12:11:06;100002.53;;;8.41;69.67
50282;BME280;36176;51.506;10.272;2024-02-28T12:13:33;100002.44;;;8.13;66.99
50282;BME280;36176;51.506;10.272;2024-02-28T12:16:01;99997.75;;;7.91;68.81
50282;BME280;36176;51.506;10.272;2024-02-28T12:18:30;100000.66;;;8.13;69.49
50282;BME280;36176;51.506;10.272;2024-02-28T12:21:01;99997.34;;;8.36;68.80
50282;BME280;36176;51.506;10.272;2024-02-28T12:23:28;100001.22;;;8.54;66.99
50282;BME280;36176;51.506;10.272;2024-02-28T12:25:55;100002.78;;;8.61;65.71
50282;BME280;36176;51.506;10.272;2024-02-28T12:28:22;99998.31;;;8.34;64.83
50282;BME280;36176;51.506;10.272;2024-02-28T12:30:49;100001.44;;;8.17;66.98
50282;BME280;36176;51.506;10.272;2024-02-28T12:33:16;99988.53;;;7.75;66.79
50282;BME280;36176;51.506;10.272;2024-02-28T12:35:44;99992.00;;;7.77;67.50
50282;BME280;36176;51.506;10.272;2024-02-28T12:38:10;99988.78;;;7.97;66.86
50282;BME280;36176;51.506;10.272;2024-02-28T12:40:38;99986.81;;;8.05;66.63
50282;BME280;36176;51.506;10.272;2024-02-28T12:43:05;99983.78;;;7.87;66.43
50282;BME280;36176;51.506;10.272;2024-02-28T12:45:33;99978.94;;;8.03;67.62
50282;BME280;36176;51.506;10.272;2024-02-28T12:48:01;99975.22;;;8.10;67.31
50282;BME280;36176;51.506;10.272;2024-02-28T12:50:28;99971.31;;;8.24;67.84
50282;BME280;36176;51.506;10.272;2024-02-28T12:52:55;99972.75;;;8.64;68.20
50282;BME280;36176;51.506;10.272;2024-02-28T12:55:22;99971.50;;;8.47;65.43
50282;BME280;36176;51.506;10.272;2024-02-28T12:57:49;99972.81;;;8.62;67.32
50282;BME280;36176;51.506;10.272;2024-02-28T13:00:16;99971.47;;;8.77;67.20
50282;BME280;36176;51.506;10.272;2024-02-28T13:02:44;99965.59;;;8.96;66.86
50282;BME280;36176;51.506;10.272;2024-02-28T13:05:12;99957.03;;;9.14;64.79
50282;BME280;36176;51.506;10.272;2024-02-28T13:07:39;99958.78;;;9.15;62.35
50282;BME280;36176;51.506;10.272;2024-02-28T13:10:07;99961.59;;;9.10;64.25
50282;BME280;36176;51.506;10.272;2024-02-28T13:12:35;99955.25;;;9.14;63.00
50282;BME280;36176;51.506;10.272;2024-02-28T13:15:02;99966.91;;;9.09;63.15
50282;BME280;36176;51.506;10.272;2024-02-28T13:17:30;99962.03;;;9.23;63.89
50282;BME280;36176;51.506;10.272;2024-02-28T13:19:57;99956.28;;;9.37;64.00
50282;BME280;36176;51.506;10.272;2024-02-28T13:22:24;99950.22;;;9.58;63.92
50282;BME280;36176;51.506;10.272;2024-02-28T13:24:51;99950.53;;;9.74;62.84
50282;BME280;36176;51.506;10.272;2024-02-28T13:27:18;99945.44;;;9.70;61.03
50282;BME280;36176;51.506;10.272;2024-02-28T13:29:46;99950.75;;;9.43;62.30
50282;BME280;36176;51.506;10.272;2024-02-28T13:32:16;99948.28;;;9.39;62.26
50282;BME280;36176;51.506;10.272;2024-02-28T13:34:43;99934.41;;;9.32;60.81
50282;BME280;36176;51.506;10.272;2024-02-28T13:37:15;99925.16;;;9.19;62.15